sensor_id;sensor_type;location;lat;lon;timestamp;pressure;altitude;pressure_sealevel;temperature;humidity
65880;BME280;52661;51.364;6.054;2022-10-31T00:02:17;101788.66;;;15.06;100.00
65880;BME280;52661;51.364;6.054;2022-10-31T00:04:43;101794.53;;;15.08;100.00
65880;BME280;52661;51.364;6.054;2022-10-31T00:07:08;101788.66;;;15.10;100.00
65880;BME280;52661;51.364;6.054;2022-10-31T00:09:33;101780.84;;;15.01;100.00
65880;BME280;52661;51.364;6.054;2022-10-31T00:11:58;101784.78;;;15.04;100.00
65880;BME280;52661;51.364;6.054;2022-10-31T00:14:24;101782.03;;;15.00;100.00
65880;BME280;52661;51.364;6.054;2022-10-31T00:16:49;101784.38;;;15.02;100.00
65880;BME280;52661;51.364;6.054;2022-10-31T00:19:14;101782.41;;;15.13;100.00
65880;BME280;52661;51.364;6.054;2022-10-31T00:21:40;101783.19;;;15.10;100.00
65880;BME280;52661;51.364;6.054;2022-10-31T00:24:05;101776.16;;;15.05;100.00
65880;BME280;52661;51.364;6.054;2022-10-31T00:26:31;101775.00;;;15.06;100.00
65880;BME280;52661;51.364;6.054;2022-10-31T00:28:58;101773.44;;;15.02;100.00
65880;BME280;52661;51.364;6.054;2022-10-31T00:31:23;101779.31;;;15.07;100.00
65880;BME280;52661;51.364;6.054;2022-10-31T00:33:49;101776.16;;;15.16;100.00
65880;BME280;52661;51.364;6.054;2022-10-31T00:36:18;101778.53;;;14.93;100.00
65880;BME280;52661;51.364;6.054;2022-10-31T00:38:44;101767.63;;;14.71;100.00
65880;BME280;52661;51.364;6.054;2022-10-31T00:41:11;101766.84;;;14.64;100.00
65880;BME280;52661;51.364;6.054;2022-10-31T00:43:37;101764.09;;;14.64;100.00
65880;BME280;52661;51.364;6.054;2022-10-31T00:46:03;101775.03;;;14.74;100.00
65880;BME280;52661;51.364;6.054;2022-10-31T00:48:28;101777.75;;;14.71;100.00
65880;BME280;52661;51.364;6.054;2022-10-31T00:50:54;101769.16;;;14.65;100.00
65880;BME280;52661;51.364;6.054;2022-10-31T00:53:20;101775.41;;;14.73;100.00
65880;BME280;52661;51.364;6.054;2022-10-31T00:55:45;101769.94;;;14.80;100.00
65880;BME280;52661;51.364;6.054;2022-10-31T00:58:10;101766.06;;;14.74;100.00
65880;BME280;52661;51.364;6.054;2022-10-31T01:00:36;101753.56;;;14.59;100.00
65880;BME280;52661;51.364;6.054;2022-10-31T01:03:01;101753.50;;;14.27;100.00
65880;BME280;52661;51.364;6.054;2022-10-31T01:05:27;101757.38;;;14.22;100.00
65880;BME280;52661;51.364;6.054;2022-10-31T01:07:52;101758.63;;;14.39;100.00
65880;BME280;52661;51.364;6.054;2022-10-31T01:10:17;101752.75;;;14.48;100.00
65880;BME280;52661;51.364;6.054;2022-10-31T01:12:46;101761.38;;;14.46;100.00
65880;BME280;52661;51.364;6.054;2022-10-31T01:15:13;101758.63;;;14.46;100.00
65880;BME280;52661;51.364;6.054;2022-10-31T01:17:39;101760.97;;;14.55;100.00
65880;BME280;52661;51.364;6.054;2022-10-31T01:20:06;101765.63;;;14.44;100.00
65880;BME280;52661;51.364;6.054;2022-10-31T01:22:32;101774.25;;;14.49;100.00
65880;BME280;52661;51.364;6.054;2022-10-31T01:24:57;101776.19;;;14.45;100.00
65880;BME280;52661;51.364;6.054;2022-10-31T01:27:22;101771.09;;;14.51;100.00
65880;BME280;52661;51.364;6.054;2022-10-31T01:29:48;101778.91;;;14.45;100.00
65880;BME280;52661;51.364;6.054;2022-10-31T01:32:13;101782.81;;;14.44;100.00
65880;BME280;52661;51.364;6.054;2022-10-31T01:34:38;101774.25;;;14.46;100.00
65880;BME280;52661;51.364;6.054;2022-10-31T01:37:04;101776.97;;;14.49;100.00
65880;BME280;52661;51.364;6.054;2022-10-31T01:39:29;101771.91;;;14.58;100.00
65880;BME280;52661;51.364;6.054;2022-10-31T01:41:55;101768.78;;;14.67;100.00
65880;BME280;52661;51.364;6.054;2022-10-31T01:47:08;101766.44;;;14.62;100.00
65880;BME280;52661;51.364;6.054;2022-10-31T01:49:46;101761.75;;;14.66;100.00
65880;BME280;52661;51.364;6.054;2022-10-31T01:54:52;101761.38;;;14.39;100.00
65880;BME280;52661;51.364;6.054;2022-10-31T01:57:20;101760.16;;;14.37;100.00
65880;BME280;52661;51.364;6.054;2022-10-31T01:59:49;101757.44;;;14.47;100.00
65880;BME280;52661;51.364;6.054;2022-10-31T02:02:17;101767.63;;;14.50;100.00
65880;BME280;52661;51.364;6.054;2022-10-31T02:04:43;101768.00;;;14.42;100.00
65880;BME280;52661;51.364;6.054;2022-10-31T02:07:13;101760.56;;;14.35;100.00
65880;BME280;52661;51.364;6.054;2022-10-31T02:09:40;101760.13;;;14.33;100.00
65880;BME280;52661;51.364;6.054;2022-10-31T02:12:07;101757.81;;;14.32;100.00
65880;BME280;52661;51.364;6.054;2022-10-31T02:14:33;101763.25;;;14.28;100.00
65880;BME280;52661;51.364;6.054;2022-10-31T02:17:00;101759.41;;;14.40;100.00
65880;BME280;52661;51.364;6.054;2022-10-31T02:19:45;101756.28;;;14.41;100.00
65880;BME280;52661;51.364;6.054;2022-10-31T02:24:52;101750.81;;;14.45;100.00
65880;BME280;52661;51.364;6.054;2022-10-31T02:27:37;101750.81;;;14.41;100.00
65880;BME280;52661;51.364;6.054;2022-10-31T02:30:11;101748.88;;;14.35;100.00
65880;BME280;52661;51.364;6.054;2022-10-31T02:35:39;101746.44;;;14.12;100.00
65880;BME280;52661;51.364;6.054;2022-10-31T02:49:17;101743.72;;;14.08;100.00
65880;BME280;52661;51.364;6.054;2022-10-31T02:51:45;101746.06;;;14.06;100.00
65880;BME280;52661;51.364;6.054;2022-10-31T02:54:23;101743.31;;;13.92;100.00
65880;BME280;52661;51.364;6.054;2022-10-31T02:56:51;101749.16;;;13.98;100.00
65880;BME280;52661;51.364;6.054;2022-10-31T02:59:19;101749.16;;;14.01;100.00
65880;BME280;52661;51.364;6.054;2022-10-31T03:04:36;101756.13;;;13.81;100.00
65880;BME280;52661;51.364;6.054;2022-10-31T03:07:20;101751.47;;;13.85;100.00
65880;BME280;52661;51.364;6.054;2022-10-31T03:10:16;101751.84;;;13.80;100.00
65880;BME280;52661;51.364;6.054;2022-10-31T03:16:16;101754.16;;;13.74;100.00
65880;BME280;52661;51.364;6.054;2022-10-31T03:18:53;101752.97;;;13.75;100.00
65880;BME280;52661;51.364;6.054;2022-10-31T03:21:25;101760.03;;;13.87;100.00
65880;BME280;52661;51.364;6.054;2022-10-31T03:23:53;101756.53;;;13.87;100.00
65880;BME280;52661;51.364;6.054;2022-10-31T03:26:21;101757.31;;;13.84;100.00
65880;BME280;52661;51.364;6.054;2022-10-31T03:29:00;101759.22;;;13.72;100.00
65880;BME280;52661;51.364;6.054;2022-10-31T03:31:29;101758.34;;;13.51;100.00
65880;BME280;52661;51.364;6.054;2022-10-31T03:33:59;101757.47;;;13.32;100.00
65880;BME280;52661;51.364;6.054;2022-10-31T03:36:27;101750.06;;;13.29;100.00
65880;BME280;52661;51.364;6.054;2022-10-31T03:38:53;101748.03;;;13.16;100.00
65880;BME280;52661;51.364;6.054;2022-10-31T03:41:21;101737.53;;;13.18;100.00
65880;BME280;52661;51.364;6.054;2022-10-31T03:43:56;101744.94;;;13.21;100.00
65880;BME280;52661;51.364;6.054;2022-10-31T03:46:24;101741.09;;;13.32;100.00
65880;BME280;52661;51.364;6.054;2022-10-31T03:48:50;101733.34;;;13.35;100.00
65880;BME280;52661;51.364;6.054;2022-10-31T03:51:25;101735.34;;;13.48;100.00
65880;BME280;52661;51.364;6.054;2022-10-31T03:54:13;101734.56;;;13.48;100.00
65880;BME280;52661;51.364;6.054;2022-10-31T03:59:23;101733.63;;;13.15;100.00
65880;BME280;52661;51.364;6.054;2022-10-31T04:01:52;101723.91;;;13.21;100.00
65880;BME280;52661;51.364;6.054;2022-10-31T04:04:19;101730.03;;;13.08;100.00
65880;BME280;52661;51.364;6.054;2022-10-31T04:06:46;101736.16;;;12.91;100.00
65880;BME280;52661;51.364;6.054;2022-10-31T04:09:12;101730.72;;;12.91;100.00
65880;BME280;52661;51.364;6.054;2022-10-31T04:11:48;101726.81;;;12.92;100.00
65880;BME280;52661;51.364;6.054;2022-10-31T04:14:16;101726.50;;;13.04;100.00
65880;BME280;52661;51.364;6.054;2022-10-31T04:16:42;101737.38;;;13.00;100.00
65880;BME280;52661;51.364;6.054;2022-10-31T04:19:09;101739.66;;;12.88;100.00
65880;BME280;52661;51.364;6.054;2022-10-31T04:21:35;101735.81;;;12.99;100.00
65880;BME280;52661;51.364;6.054;2022-10-31T04:24:00;101737.50;;;13.14;100.00
65880;BME280;52661;51.364;6.054;2022-10-31T04:26:25;101737.94;;;13.20;100.00
65880;BME280;52661;51.364;6.054;2022-10-31T04:28:51;101741.84;;;13.26;100.00
65880;BME280;52661;51.364;6.054;2022-10-31T04:31:16;101743.75;;;13.15;100.00
65880;BME280;52661;51.364;6.054;2022-10-31T04:33:42;101746.34;;;13.01;100.00
65880;BME280;52661;51.364;6.054;2022-10-31T04:36:07;101743.13;;;12.88;100.00
65880;BME280;52661;51.364;6.054;2022-10-31T04:38:33;101744.28;;;12.83;100.00
65880;BME280;52661;51.364;6.054;2022-10-31T04:40:58;101742.41;;;12.91;100.00
65880;BME280;52661;51.364;6.054;2022-10-31T04:43:24;101737.38;;;13.00;100.00
65880;BME280;52661;51.364;6.054;2022-10-31T04:45:49;101735.94;;;13.17;100.00
65880;BME280;52661;51.364;6.054;2022-10-31T04:48:14;101727.41;;;13.18;100.00
65880;BME280;52661;51.364;6.054;2022-10-31T04:50:40;101737.03;;;13.05;100.00
65880;BME280;52661;51.364;6.054;2022-10-31T04:53:05;101737.13;;;13.12;100.00
65880;BME280;52661;51.364;6.054;2022-10-31T04:55:31;101731.59;;;13.05;100.00
65880;BME280;52661;51.364;6.054;2022-10-31T04:57:56;101727.97;;;12.87;100.00
65880;BME280;52661;51.364;6.054;2022-10-31T05:00:22;101734.44;;;12.68;100.00
65880;BME280;52661;51.364;6.054;2022-10-31T05:02:50;101730.50;;;12.62;100.00
65880;BME280;52661;51.364;6.054;2022-10-31T05:05:18;101731.03;;;12.34;100.00
65880;BME280;52661;51.364;6.054;2022-10-31T05:07:45;101734.53;;;12.31;100.00
65880;BME280;52661;51.364;6.054;2022-10-31T05:10:12;101736.47;;;12.34;100.00
65880;BME280;52661;51.364;6.054;2022-10-31T05:12:38;101719.97;;;12.57;100.00
65880;BME280;52661;51.364;6.054;2022-10-31T05:15:10;101723.56;;;12.72;100.00
65880;BME280;52661;51.364;6.054;2022-10-31T05:17:35;101715.44;;;12.75;100.00
65880;BME280;52661;51.364;6.054;2022-10-31T05:20:00;101705.75;;;12.85;100.00
65880;BME280;52661;51.364;6.054;2022-10-31T05:22:25;101706.88;;;12.80;100.00
65880;BME280;52661;51.364;6.054;2022-10-31T05:24:51;101709.66;;;12.84;100.00
65880;BME280;52661;51.364;6.054;2022-10-31T05:27:16;101702.16;;;12.70;100.00
65880;BME280;52661;51.364;6.054;2022-10-31T05:29:41;101701.72;;;12.65;100.00
65880;BME280;52661;51.364;6.054;2022-10-31T05:32:07;101695.88;;;12.63;100.00
65880;BME280;52661;51.364;6.054;2022-10-31T05:34:32;101700.38;;;12.45;100.00
65880;BME280;52661;51.364;6.054;2022-10-31T05:36:57;101703.69;;;12.20;100.00
65880;BME280;52661;51.364;6.054;2022-10-31T05:39:23;101707.13;;;12.14;100.00
65880;BME280;52661;51.364;6.054;2022-10-31T05:41:48;101703.53;;;12.03;100.00
65880;BME280;52661;51.364;6.054;2022-10-31T05:44:13;101694.97;;;12.01;100.00
65880;BME280;52661;51.364;6.054;2022-10-31T05:46:39;101690.78;;;12.10;100.00
65880;BME280;52661;51.364;6.054;2022-10-31T05:49:04;101694.28;;;12.11;100.00
65880;BME280;52661;51.364;6.054;2022-10-31T05:51:29;101692.75;;;12.13;100.00
65880;BME280;52661;51.364;6.054;2022-10-31T05:53:54;101685.47;;;12.24;100.00
65880;BME280;52661;51.364;6.054;2022-10-31T05:56:20;101687.44;;;12.31;100.00
65880;BME280;52661;51.364;6.054;2022-10-31T05:58:45;101694.03;;;12.30;100.00
65880;BME280;52661;51.364;6.054;2022-10-31T06:01:10;101698.31;;;12.27;100.00
65880;BME280;52661;51.364;6.054;2022-10-31T06:03:36;101707.59;;;12.23;100.00
65880;BME280;52661;51.364;6.054;2022-10-31T06:06:01;101706.91;;;12.29;100.00
65880;BME280;52661;51.364;6.054;2022-10-31T06:08:26;101707.63;;;12.26;100.00
65880;BME280;52661;51.364;6.054;2022-10-31T06:10:52;101720.44;;;12.22;100.00
65880;BME280;52661;51.364;6.054;2022-10-31T06:13:18;101706.22;;;12.43;100.00
65880;BME280;52661;51.364;6.054;2022-10-31T06:15:44;101708.44;;;12.30;100.00
65880;BME280;52661;51.364;6.054;2022-10-31T06:18:09;101702.19;;;12.26;100.00
65880;BME280;52661;51.364;6.054;2022-10-31T06:20:34;101708.00;;;12.21;100.00
65880;BME280;52661;51.364;6.054;2022-10-31T06:23:00;101695.03;;;12.08;100.00
65880;BME280;52661;51.364;6.054;2022-10-31T06:25:26;101700.38;;;11.97;100.00
65880;BME280;52661;51.364;6.054;2022-10-31T06:27:51;101700.59;;;11.81;100.00
65880;BME280;52661;51.364;6.054;2022-10-31T06:30:17;101697.09;;;11.81;100.00
65880;BME280;52661;51.364;6.054;2022-10-31T06:32:42;101696.34;;;11.84;100.00
65880;BME280;52661;51.364;6.054;2022-10-31T06:35:08;101691.66;;;11.81;100.00
65880;BME280;52661;51.364;6.054;2022-10-31T06:37:33;101698.59;;;11.75;100.00
65880;BME280;52661;51.364;6.054;2022-10-31T06:39:58;101699.34;;;11.72;100.00
65880;BME280;52661;51.364;6.054;2022-10-31T06:42:24;101685.28;;;11.70;100.00
65880;BME280;52661;51.364;6.054;2022-10-31T06:44:49;101686.78;;;11.64;100.00
65880;BME280;52661;51.364;6.054;2022-10-31T06:47:15;101692.31;;;11.71;100.00
65880;BME280;52661;51.364;6.054;2022-10-31T06:49:40;101697.47;;;11.83;100.00
65880;BME280;52661;51.364;6.054;2022-10-31T06:52:05;101692.63;;;11.99;100.00
65880;BME280;52661;51.364;6.054;2022-10-31T06:54:31;101688.09;;;12.14;100.00
65880;BME280;52661;51.364;6.054;2022-10-31T06:56:56;101697.06;;;12.18;100.00
65880;BME280;52661;51.364;6.054;2022-10-31T06:59:21;101701.38;;;12.19;100.00
65880;BME280;52661;51.364;6.054;2022-10-31T07:01:46;101685.91;;;12.33;100.00
65880;BME280;52661;51.364;6.054;2022-10-31T07:04:12;101694.50;;;12.36;100.00
65880;BME280;52661;51.364;6.054;2022-10-31T07:06:38;101700.25;;;12.27;100.00
65880;BME280;52661;51.364;6.054;2022-10-31T07:09:04;101697.47;;;12.20;100.00
65880;BME280;52661;51.364;6.054;2022-10-31T07:11:29;101691.53;;;12.07;100.00
65880;BME280;52661;51.364;6.054;2022-10-31T07:13:54;101694.59;;;12.06;100.00
65880;BME280;52661;51.364;6.054;2022-10-31T07:16:19;101702.81;;;12.09;100.00
65880;BME280;52661;51.364;6.054;2022-10-31T07:18:45;101698.81;;;11.96;100.00
65880;BME280;52661;51.364;6.054;2022-10-31T07:21:10;101698.03;;;11.96;100.00
65880;BME280;52661;51.364;6.054;2022-10-31T07:23:35;101705.09;;;12.04;100.00
65880;BME280;52661;51.364;6.054;2022-10-31T07:26:01;101704.72;;;12.05;100.00
65880;BME280;52661;51.364;6.054;2022-10-31T07:28:27;101708.53;;;11.97;100.00
65880;BME280;52661;51.364;6.054;2022-10-31T07:30:54;101699.19;;;11.98;100.00
65880;BME280;52661;51.364;6.054;2022-10-31T07:33:20;101698.94;;;12.10;100.00
65880;BME280;52661;51.364;6.054;2022-10-31T07:35:46;101702.13;;;12.19;100.00
65880;BME280;52661;51.364;6.054;2022-10-31T07:38:12;101708.03;;;12.25;100.00
65880;BME280;52661;51.364;6.054;2022-10-31T07:40:39;101704.53;;;12.28;100.00
65880;BME280;52661;51.364;6.054;2022-10-31T07:43:04;101706.94;;;12.33;100.00
65880;BME280;52661;51.364;6.054;2022-10-31T07:45:30;101704.09;;;12.19;100.00
65880;BME280;52661;51.364;6.054;2022-10-31T07:47:56;101711.09;;;12.23;100.00
65880;BME280;52661;51.364;6.054;2022-10-31T07:50:26;101712.34;;;12.29;100.00
65880;BME280;52661;51.364;6.054;2022-10-31T07:53:00;101717.44;;;12.34;100.00
65880;BME280;52661;51.364;6.054;2022-10-31T07:55:26;101712.44;;;12.40;100.00
65880;BME280;52661;51.364;6.054;2022-10-31T07:58:08;101705.41;;;12.39;100.00
65880;BME280;52661;51.364;6.054;2022-10-31T08:00:35;101714.00;;;12.45;100.00
65880;BME280;52661;51.364;6.054;2022-10-31T08:05:32;101713.56;;;12.36;100.00
65880;BME280;52661;51.364;6.054;2022-10-31T08:07:57;101705.31;;;12.28;100.00
65880;BME280;52661;51.364;6.054;2022-10-31T08:10:24;101707.97;;;12.18;100.00
65880;BME280;52661;51.364;6.054;2022-10-31T08:13:00;101701.34;;;12.15;100.00
65880;BME280;52661;51.364;6.054;2022-10-31T08:15:26;101702.94;;;12.23;100.00
65880;BME280;52661;51.364;6.054;2022-10-31T08:17:51;101706.81;;;12.19;100.00
65880;BME280;52661;51.364;6.054;2022-10-31T08:20:17;101718.16;;;12.28;100.00
65880;BME280;52661;51.364;6.054;2022-10-31T08:22:43;101704.63;;;12.39;100.00
65880;BME280;52661;51.364;6.054;2022-10-31T08:25:08;101711.75;;;12.50;100.00
65880;BME280;52661;51.364;6.054;2022-10-31T08:27:33;101705.91;;;12.55;100.00
65880;BME280;52661;51.364;6.054;2022-10-31T08:29:59;101709.53;;;12.70;100.00
65880;BME280;52661;51.364;6.054;2022-10-31T08:32:24;101712.31;;;12.80;100.00
65880;BME280;52661;51.364;6.054;2022-10-31T08:34:49;101706.16;;;12.83;100.00
65880;BME280;52661;51.364;6.054;2022-10-31T08:37:15;101707.38;;;12.93;100.00
65880;BME280;52661;51.364;6.054;2022-10-31T08:39:45;101705.84;;;13.03;100.00
65880;BME280;52661;51.364;6.054;2022-10-31T08:42:11;101707.19;;;13.26;100.00
65880;BME280;52661;51.364;6.054;2022-10-31T08:44:36;101699.81;;;13.27;100.00
65880;BME280;52661;51.364;6.054;2022-10-31T08:47:02;101692.81;;;13.37;100.00
65880;BME280;52661;51.364;6.054;2022-10-31T08:49:27;101674.84;;;13.25;100.00
65880;BME280;52661;51.364;6.054;2022-10-31T08:51:52;101670.97;;;13.26;100.00
65880;BME280;52661;51.364;6.054;2022-10-31T08:54:17;101672.16;;;13.32;100.00
65880;BME280;52661;51.364;6.054;2022-10-31T08:56:43;101674.50;;;13.30;100.00
65880;BME280;52661;51.364;6.054;2022-10-31T08:59:08;101663.59;;;13.34;100.00
65880;BME280;52661;51.364;6.054;2022-10-31T09:01:33;101662.84;;;13.37;100.00
65880;BME280;52661;51.364;6.054;2022-10-31T09:03:59;101664.38;;;13.34;100.00
65880;BME280;52661;51.364;6.054;2022-10-31T09:06:24;101652.31;;;13.39;100.00
65880;BME280;52661;51.364;6.054;2022-10-31T09:08:49;101656.25;;;13.45;100.00
65880;BME280;52661;51.364;6.054;2022-10-31T09:11:15;101650.41;;;13.50;100.00
65880;BME280;52661;51.364;6.054;2022-10-31T09:13:40;101650.03;;;13.58;100.00
65880;BME280;52661;51.364;6.054;2022-10-31T09:16:06;101662.91;;;13.65;100.00
65880;BME280;52661;51.364;6.054;2022-10-31T09:18:31;101655.16;;;13.70;100.00
65880;BME280;52661;51.364;6.054;2022-10-31T09:20:58;101653.22;;;13.78;100.00
65880;BME280;52661;51.364;6.054;2022-10-31T09:23:24;101647.00;;;13.85;100.00
65880;BME280;52661;51.364;6.054;2022-10-31T09:25:51;101636.06;;;13.85;100.00
65880;BME280;52661;51.364;6.054;2022-10-31T09:28:19;101632.94;;;13.93;100.00
65880;BME280;52661;51.364;6.054;2022-10-31T09:30:49;101633.72;;;14.08;100.00
65880;BME280;52661;51.364;6.054;2022-10-31T09:33:16;101631.41;;;14.13;100.00
65880;BME280;52661;51.364;6.054;2022-10-31T09:35:41;101622.44;;;14.16;100.00
65880;BME280;52661;51.364;6.054;2022-10-31T09:38:15;101631.78;;;14.15;100.00
65880;BME280;52661;51.364;6.054;2022-10-31T09:40:43;101625.16;;;14.27;100.00
65880;BME280;52661;51.364;6.054;2022-10-31T09:45:53;101616.59;;;14.46;100.00
65880;BME280;52661;51.364;6.054;2022-10-31T09:51:19;101610.34;;;14.53;100.00
65880;BME280;52661;51.364;6.054;2022-10-31T09:53:53;101608.72;;;14.66;100.00
65880;BME280;52661;51.364;6.054;2022-10-31T09:56:23;101605.19;;;14.69;100.00
65880;BME280;52661;51.364;6.054;2022-10-31T09:58:58;101602.09;;;14.74;100.00
65880;BME280;52661;51.364;6.054;2022-10-31T10:06:55;101591.91;;;14.85;100.00
65880;BME280;52661;51.364;6.054;2022-10-31T10:09:25;101596.97;;;14.90;100.00
65880;BME280;52661;51.364;6.054;2022-10-31T10:20:29;101577.25;;;15.27;100.00
65880;BME280;52661;51.364;6.054;2022-10-31T10:25:38;101576.81;;;15.36;100.00
65880;BME280;52661;51.364;6.054;2022-10-31T10:28:21;101581.13;;;15.33;100.00
65880;BME280;52661;51.364;6.054;2022-10-31T10:31:05;101588.13;;;15.38;100.00
65880;BME280;52661;51.364;6.054;2022-10-31T10:33:36;101580.25;;;15.47;100.00
65880;BME280;52661;51.364;6.054;2022-10-31T10:36:06;101572.44;;;15.45;100.00
65880;BME280;52661;51.364;6.054;2022-10-31T10:41:05;101544.72;;;15.43;100.00
65880;BME280;52661;51.364;6.054;2022-10-31T10:43:38;101538.13;;;15.37;100.00
65880;BME280;52661;51.364;6.054;2022-10-31T10:46:20;101524.88;;;15.32;100.00
65880;BME280;52661;51.364;6.054;2022-10-31T10:57:11;101546.34;;;15.37;100.00
65880;BME280;52661;51.364;6.054;2022-10-31T10:59:40;101552.19;;;15.36;100.00
65880;BME280;52661;51.364;6.054;2022-10-31T11:02:25;101544.31;;;15.41;100.00
65880;BME280;52661;51.364;6.054;2022-10-31T11:04:53;101548.66;;;15.39;100.00
65880;BME280;52661;51.364;6.054;2022-10-31T11:07:19;101552.19;;;15.36;100.00
65880;BME280;52661;51.364;6.054;2022-10-31T11:09:45;101545.19;;;15.31;100.00
65880;BME280;52661;51.364;6.054;2022-10-31T11:12:32;101543.66;;;15.30;100.00
65880;BME280;52661;51.364;6.054;2022-10-31T11:15:00;101542.88;;;15.26;100.00
65880;BME280;52661;51.364;6.054;2022-10-31T11:17:32;101535.47;;;15.23;100.00
65880;BME280;52661;51.364;6.054;2022-10-31T11:20:23;101533.13;;;15.21;100.00
65880;BME280;52661;51.364;6.054;2022-10-31T11:22:49;101526.50;;;15.22;100.00
65880;BME280;52661;51.364;6.054;2022-10-31T11:25:26;101514.03;;;15.18;100.00
65880;BME280;52661;51.364;6.054;2022-10-31T11:28:09;101494.47;;;15.19;100.00
65880;BME280;52661;51.364;6.054;2022-10-31T11:30:46;101483.16;;;15.17;100.00
65880;BME280;52661;51.364;6.054;2022-10-31T11:33:34;101497.63;;;15.18;100.00
65880;BME280;52661;51.364;6.054;2022-10-31T11:36:03;101482.00;;;15.15;100.00
65880;BME280;52661;51.364;6.054;2022-10-31T11:38:42;101467.16;;;15.12;100.00
65880;BME280;52661;51.364;6.054;2022-10-31T11:41:12;101464.44;;;15.09;100.00
65880;BME280;52661;51.364;6.054;2022-10-31T11:44:10;101462.50;;;15.09;100.00
65880;BME280;52661;51.364;6.054;2022-10-31T11:48:59;101464.44;;;15.12;100.00
65880;BME280;52661;51.364;6.054;2022-10-31T11:51:31;101459.31;;;15.18;100.00
65880;BME280;52661;51.364;6.054;2022-10-31T11:53:58;101443.69;;;15.18;100.00
65880;BME280;52661;51.364;6.054;2022-10-31T11:56:24;101443.25;;;15.23;100.00
65880;BME280;52661;51.364;6.054;2022-10-31T11:59:02;101442.44;;;15.30;100.00
65880;BME280;52661;51.364;6.054;2022-10-31T12:01:30;101441.66;;;15.30;100.00
65880;BME280;52661;51.364;6.054;2022-10-31T12:06:34;101432.16;;;15.41;100.00
65880;BME280;52661;51.364;6.054;2022-10-31T12:09:00;101425.91;;;15.44;100.00
65880;BME280;52661;51.364;6.054;2022-10-31T12:14:44;101405.94;;;15.47;100.00
65880;BME280;52661;51.364;6.054;2022-10-31T12:17:21;101407.47;;;15.48;100.00
65880;BME280;52661;51.364;6.054;2022-10-31T12:20:28;101391.09;;;15.52;100.00
65880;BME280;52661;51.364;6.054;2022-10-31T12:45:52;101337.34;;;15.68;100.00
65880;BME280;52661;51.364;6.054;2022-10-31T12:51:30;101323.63;;;15.72;100.00
65880;BME280;52661;51.364;6.054;2022-10-31T12:56:41;101308.72;;;15.77;100.00
65880;BME280;52661;51.364;6.054;2022-10-31T12:59:21;101298.19;;;15.75;100.00
65880;BME280;52661;51.364;6.054;2022-10-31T13:01:55;101302.06;;;15.77;100.00
65880;BME280;52661;51.364;6.054;2022-10-31T13:04:36;101297.00;;;15.76;100.00
65880;BME280;52661;51.364;6.054;2022-10-31T13:07:11;101285.66;;;15.74;100.00
65880;BME280;52661;51.364;6.054;2022-10-31T13:10:07;101289.97;;;15.75;100.00
65880;BME280;52661;51.364;6.054;2022-10-31T13:12:34;101287.63;;;15.77;100.00
65880;BME280;52661;51.364;6.054;2022-10-31T13:15:10;101286.78;;;15.80;100.00
65880;BME280;52661;51.364;6.054;2022-10-31T13:17:41;101272.63;;;15.85;100.00
65880;BME280;52661;51.364;6.054;2022-10-31T13:20:22;101276.56;;;15.84;100.00
65880;BME280;52661;51.364;6.054;2022-10-31T13:25:44;101268.66;;;15.90;100.00
65880;BME280;52661;51.364;6.054;2022-10-31T13:31:06;101265.50;;;15.95;100.00
65880;BME280;52661;51.364;6.054;2022-10-31T13:33:53;101247.84;;;15.96;100.00
65880;BME280;52661;51.364;6.054;2022-10-31T13:36:32;101246.28;;;15.98;100.00
65880;BME280;52661;51.364;6.054;2022-10-31T13:41:49;101224.63;;;16.07;100.00
65880;BME280;52661;51.364;6.054;2022-10-31T13:44:24;101220.28;;;16.10;100.00
65880;BME280;52661;51.364;6.054;2022-10-31T13:46:52;101218.69;;;16.12;100.00
65880;BME280;52661;51.364;6.054;2022-10-31T13:54:39;101197.69;;;16.29;100.00
65880;BME280;52661;51.364;6.054;2022-10-31T13:57:18;101185.06;;;16.35;100.00
65880;BME280;52661;51.364;6.054;2022-10-31T13:59:56;101186.50;;;16.43;100.00
65880;BME280;52661;51.364;6.054;2022-10-31T14:02:28;101182.34;;;16.58;100.00
65880;BME280;52661;51.364;6.054;2022-10-31T14:04:58;101185.34;;;16.67;100.00
65880;BME280;52661;51.364;6.054;2022-10-31T14:07:25;101177.47;;;16.69;100.00
65880;BME280;52661;51.364;6.054;2022-10-31T14:09:56;101181.63;;;16.78;98.76
65880;BME280;52661;51.364;6.054;2022-10-31T14:12:33;101174.47;;;16.84;98.94
65880;BME280;52661;51.364;6.054;2022-10-31T14:17:51;101164.28;;;16.84;97.57
65880;BME280;52661;51.364;6.054;2022-10-31T14:22:43;101137.56;;;16.88;96.71
65880;BME280;52661;51.364;6.054;2022-10-31T14:25:32;101136.78;;;16.88;96.51
65880;BME280;52661;51.364;6.054;2022-10-31T14:28:00;101130.84;;;16.93;95.52
65880;BME280;52661;51.364;6.054;2022-10-31T14:30:27;101125.34;;;16.93;97.34
65880;BME280;52661;51.364;6.054;2022-10-31T14:33:00;101127.66;;;16.94;95.53
65880;BME280;52661;51.364;6.054;2022-10-31T14:35:43;101122.16;;;16.94;96.32
65880;BME280;52661;51.364;6.054;2022-10-31T14:38:24;101118.31;;;16.92;95.51
65880;BME280;52661;51.364;6.054;2022-10-31T14:41:02;101114.78;;;16.91;93.06
65880;BME280;52661;51.364;6.054;2022-10-31T14:43:44;101112.03;;;16.91;92.74
65880;BME280;52661;51.364;6.054;2022-10-31T14:49:29;101117.53;;;16.91;91.30
65880;BME280;52661;51.364;6.054;2022-10-31T14:51:59;101126.59;;;16.88;91.25
65880;BME280;52661;51.364;6.054;2022-10-31T14:54:30;101131.56;;;16.93;89.83
65880;BME280;52661;51.364;6.054;2022-10-31T14:57:04;101114.16;;;16.84;92.01